sensor_id;sensor_type;location;lat;lon;timestamp;P1;durP1;ratioP1;P2;durP2;ratioP2
22034;SDS011;11181;51.002;4.356;2023-08-30T00:02:08;5.47;;;3.90;;
22034;SDS011;11181;51.002;4.356;2023-08-30T00:04:35;5.87;;;3.67;;
22034;SDS011;11181;51.002;4.356;2023-08-30T00:07:02;6.63;;;3.50;;
22034;SDS011;11181;51.002;4.356;2023-08-30T00:09:29;4.83;;;2.87;;
22034;SDS011;11181;51.002;4.356;2023-08-30T00:11:56;4.90;;;3.80;;
22034;SDS011;11181;51.002;4.356;2023-08-30T00:14:24;4.90;;;2.97;;
22034;SDS011;11181;51.002;4.356;2023-08-30T00:16:51;3.77;;;3.23;;
22034;SDS011;11181;51.002;4.356;2023-08-30T00:19:18;4.53;;;3.30;;
22034;SDS011;11181;51.002;4.356;2023-08-30T00:21:45;5.87;;;3.67;;
22034;SDS011;11181;51.002;4.356;2023-08-30T00:24:12;3.67;;;3.37;;
22034;SDS011;11181;51.002;4.356;2023-08-30T00:26:39;6.20;;;4.87;;
22034;SDS011;11181;51.002;4.356;2023-08-30T00:29:06;7.93;;;4.37;;
22034;SDS011;11181;51.002;4.356;2023-08-30T00:31:34;4.50;;;3.83;;
22034;SDS011;11181;51.002;4.356;2023-08-30T00:34:01;4.17;;;3.67;;
22034;SDS011;11181;51.002;4.356;2023-08-30T00:36:28;4.67;;;3.97;;
22034;SDS011;11181;51.002;4.356;2023-08-30T00:38:55;8.33;;;4.00;;
22034;SDS011;11181;51.002;4.356;2023-08-30T00:41:22;5.90;;;3.80;;
22034;SDS011;11181;51.002;4.356;2023-08-30T00:43:49;4.57;;;3.73;;
22034;SDS011;11181;51.002;4.356;2023-08-30T00:46:16;5.83;;;3.53;;
22034;SDS011;11181;51.002;4.356;2023-08-30T00:48:44;7.10;;;4.27;;
22034;SDS011;11181;51.002;4.356;2023-08-30T00:51:11;5.07;;;3.97;;
22034;SDS011;11181;51.002;4.356;2023-08-30T00:53:38;6.33;;;4.33;;
22034;SDS011;11181;51.002;4.356;2023-08-30T00:56:05;4.93;;;3.60;;
22034;SDS011;11181;51.002;4.356;2023-08-30T00:58:32;5.70;;;4.10;;
22034;SDS011;11181;51.002;4.356;2023-08-30T01:01:00;4.40;;;3.67;;
22034;SDS011;11181;51.002;4.356;2023-08-30T01:03:27;3.57;;;3.07;;
22034;SDS011;11181;51.002;4.356;2023-08-30T01:05:55;5.57;;;3.60;;
22034;SDS011;11181;51.002;4.356;2023-08-30T01:08:22;5.03;;;3.70;;
22034;SDS011;11181;51.002;4.356;2023-08-30T01:10:53;4.93;;;3.53;;
22034;SDS011;11181;51.002;4.356;2023-08-30T01:13:26;3.67;;;3.33;;
22034;SDS011;11181;51.002;4.356;2023-08-30T01:15:56;4.17;;;3.20;;
22034;SDS011;11181;51.002;4.356;2023-08-30T01:18:25;7.97;;;4.20;;
22034;SDS011;11181;51.002;4.356;2023-08-30T01:20:56;5.53;;;4.03;;
22034;SDS011;11181;51.002;4.356;2023-08-30T01:23:29;5.30;;;3.80;;
22034;SDS011;11181;51.002;4.356;2023-08-30T01:26:08;6.73;;;3.87;;
22034;SDS011;11181;51.002;4.356;2023-08-30T01:28:38;5.40;;;3.80;;
22034;SDS011;11181;51.002;4.356;2023-08-30T01:31:06;5.53;;;3.93;;
22034;SDS011;11181;51.002;4.356;2023-08-30T01:33:34;9.53;;;3.93;;
22034;SDS011;11181;51.002;4.356;2023-08-30T01:36:02;6.10;;;3.70;;
22034;SDS011;11181;51.002;4.356;2023-08-30T01:38:31;8.80;;;3.77;;
22034;SDS011;11181;51.002;4.356;2023-08-30T01:40:58;6.10;;;4.27;;
22034;SDS011;11181;51.002;4.356;2023-08-30T01:43:27;6.93;;;3.70;;
22034;SDS011;11181;51.002;4.356;2023-08-30T01:45:56;6.80;;;3.87;;
22034;SDS011;11181;51.002;4.356;2023-08-30T01:48:25;4.70;;;3.70;;
22034;SDS011;11181;51.002;4.356;2023-08-30T01:50:54;6.53;;;4.07;;
22034;SDS011;11181;51.002;4.356;2023-08-30T01:53:24;4.87;;;4.37;;
22034;SDS011;11181;51.002;4.356;2023-08-30T01:55:52;4.57;;;3.60;;
22034;SDS011;11181;51.002;4.356;2023-08-30T01:58:19;5.07;;;4.07;;
22034;SDS011;11181;51.002;4.356;2023-08-30T02:00:46;4.40;;;3.77;;
22034;SDS011;11181;51.002;4.356;2023-08-30T02:03:14;5.60;;;3.80;;
22034;SDS011;11181;51.002;4.356;2023-08-30T02:05:43;6.77;;;4.10;;
22034;SDS011;11181;51.002;4.356;2023-08-30T02:08:29;6.23;;;4.03;;
22034;SDS011;11181;51.002;4.356;2023-08-30T02:11:02;6.20;;;4.10;;
22034;SDS011;11181;51.002;4.356;2023-08-30T02:13:34;5.57;;;3.77;;
22034;SDS011;11181;51.002;4.356;2023-08-30T02:16:01;4.80;;;3.90;;
22034;SDS011;11181;51.002;4.356;2023-08-30T02:18:31;6.87;;;4.87;;
22034;SDS011;11181;51.002;4.356;2023-08-30T02:20:58;5.97;;;4.53;;
22034;SDS011;11181;51.002;4.356;2023-08-30T02:23:25;5.53;;;4.20;;
22034;SDS011;11181;51.002;4.356;2023-08-30T02:25:53;7.00;;;4.90;;
22034;SDS011;11181;51.002;4.356;2023-08-30T02:28:21;4.97;;;4.10;;
22034;SDS011;11181;51.002;4.356;2023-08-30T02:30:48;5.80;;;4.40;;
22034;SDS011;11181;51.002;4.356;2023-08-30T02:33:16;4.83;;;4.30;;
22034;SDS011;11181;51.002;4.356;2023-08-30T02:35:44;6.70;;;4.97;;
22034;SDS011;11181;51.002;4.356;2023-08-30T02:38:11;9.13;;;4.87;;
22034;SDS011;11181;51.002;4.356;2023-08-30T02:40:38;8.70;;;4.47;;
22034;SDS011;11181;51.002;4.356;2023-08-30T02:43:05;6.27;;;4.60;;
22034;SDS011;11181;51.002;4.356;2023-08-30T02:45:32;7.20;;;5.17;;
22034;SDS011;11181;51.002;4.356;2023-08-30T02:47:59;7.37;;;4.90;;
22034;SDS011;11181;51.002;4.356;2023-08-30T02:50:26;7.03;;;4.87;;
22034;SDS011;11181;51.002;4.356;2023-08-30T02:52:55;5.43;;;4.37;;
22034;SDS011;11181;51.002;4.356;2023-08-30T02:55:21;5.30;;;3.90;;
22034;SDS011;11181;51.002;4.356;2023-08-30T02:57:48;6.53;;;4.40;;
22034;SDS011;11181;51.002;4.356;2023-08-30T03:00:15;9.07;;;4.80;;
22034;SDS011;11181;51.002;4.356;2023-08-30T03:02:42;9.57;;;5.40;;
22034;SDS011;11181;51.002;4.356;2023-08-30T03:05:09;4.83;;;4.37;;
22034;SDS011;11181;51.002;4.356;2023-08-30T03:07:37;5.47;;;4.40;;
22034;SDS011;11181;51.002;4.356;2023-08-30T03:10:06;6.37;;;4.53;;
22034;SDS011;11181;51.002;4.356;2023-08-30T03:12:33;10.40;;;6.03;;
22034;SDS011;11181;51.002;4.356;2023-08-30T03:15:00;9.03;;;4.77;;
22034;SDS011;11181;51.002;4.356;2023-08-30T03:17:29;6.67;;;4.70;;
22034;SDS011;11181;51.002;4.356;2023-08-30T03:19:56;6.97;;;4.53;;
22034;SDS011;11181;51.002;4.356;2023-08-30T03:22:23;7.50;;;4.40;;
22034;SDS011;11181;51.002;4.356;2023-08-30T03:24:49;8.00;;;5.13;;
22034;SDS011;11181;51.002;4.356;2023-08-30T03:27:18;7.43;;;5.00;;
22034;SDS011;11181;51.002;4.356;2023-08-30T03:29:45;7.57;;;4.83;;
22034;SDS011;11181;51.002;4.356;2023-08-30T03:32:14;7.03;;;4.40;;
22034;SDS011;11181;51.002;4.356;2023-08-30T03:34:43;9.33;;;5.27;;
22034;SDS011;11181;51.002;4.356;2023-08-30T03:37:10;6.63;;;4.13;;
22034;SDS011;11181;51.002;4.356;2023-08-30T03:39:37;5.80;;;4.43;;
22034;SDS011;11181;51.002;4.356;2023-08-30T03:42:04;6.63;;;4.30;;
22034;SDS011;11181;51.002;4.356;2023-08-30T03:44:33;7.63;;;4.67;;
22034;SDS011;11181;51.002;4.356;2023-08-30T03:47:00;7.33;;;4.27;;
22034;SDS011;11181;51.002;4.356;2023-08-30T03:49:27;5.50;;;3.80;;
22034;SDS011;11181;51.002;4.356;2023-08-30T03:51:54;5.43;;;3.93;;
22034;SDS011;11181;51.002;4.356;2023-08-30T03:54:21;6.80;;;4.93;;
22034;SDS011;11181;51.002;4.356;2023-08-30T03:56:48;7.87;;;4.30;;
22034;SDS011;11181;51.002;4.356;2023-08-30T03:59:15;7.63;;;4.63;;
22034;SDS011;11181;51.002;4.356;2023-08-30T04:01:43;4.77;;;4.13;;
22034;SDS011;11181;51.002;4.356;2023-08-30T04:04:11;4.50;;;3.70;;
22034;SDS011;11181;51.002;4.356;2023-08-30T04:06:38;6.87;;;3.93;;
22034;SDS011;11181;51.002;4.356;2023-08-30T04:09:05;3.97;;;3.57;;
22034;SDS011;11181;51.002;4.356;2023-08-30T04:11:32;5.13;;;3.57;;
22034;SDS011;11181;51.002;4.356;2023-08-30T04:13:59;5.80;;;3.97;;
22034;SDS011;11181;51.002;4.356;2023-08-30T04:16:27;5.20;;;3.80;;
22034;SDS011;11181;51.002;4.356;2023-08-30T04:18:55;8.10;;;4.40;;
22034;SDS011;11181;51.002;4.356;2023-08-30T04:21:22;7.60;;;3.97;;
22034;SDS011;11181;51.002;4.356;2023-08-30T04:23:50;4.47;;;3.17;;
22034;SDS011;11181;51.002;4.356;2023-08-30T04:26:16;4.90;;;3.53;;
22034;SDS011;11181;51.002;4.356;2023-08-30T04:28:43;5.80;;;3.70;;
22034;SDS011;11181;51.002;4.356;2023-08-30T04:31:10;7.30;;;4.33;;
22034;SDS011;11181;51.002;4.356;2023-08-30T04:33:37;8.93;;;4.40;;
22034;SDS011;11181;51.002;4.356;2023-08-30T04:36:05;9.73;;;4.03;;
22034;SDS011;11181;51.002;4.356;2023-08-30T04:38:33;4.80;;;3.83;;
22034;SDS011;11181;51.002;4.356;2023-08-30T04:41:00;5.57;;;3.43;;
22034;SDS011;11181;51.002;4.356;2023-08-30T04:43:27;8.43;;;3.60;;
22034;SDS011;11181;51.002;4.356;2023-08-30T04:45:54;9.17;;;4.10;;
22034;SDS011;11181;51.002;4.356;2023-08-30T04:48:21;8.13;;;4.40;;
22034;SDS011;11181;51.002;4.356;2023-08-30T04:50:49;6.03;;;4.03;;
22034;SDS011;11181;51.002;4.356;2023-08-30T04:53:25;8.97;;;3.67;;
22034;SDS011;11181;51.002;4.356;2023-08-30T04:55:52;6.77;;;4.10;;
22034;SDS011;11181;51.002;4.356;2023-08-30T04:58:19;6.97;;;4.50;;
22034;SDS011;11181;51.002;4.356;2023-08-30T05:00:46;7.03;;;4.60;;
22034;SDS011;11181;51.002;4.356;2023-08-30T05:03:12;10.40;;;4.70;;
22034;SDS011;11181;51.002;4.356;2023-08-30T05:05:39;6.77;;;4.27;;
22034;SDS011;11181;51.002;4.356;2023-08-30T05:08:10;9.63;;;4.83;;
22034;SDS011;11181;51.002;4.356;2023-08-30T05:10:39;11.50;;;4.87;;
22034;SDS011;11181;51.002;4.356;2023-08-30T05:13:08;7.47;;;4.50;;
22034;SDS011;11181;51.002;4.356;2023-08-30T05:15:34;7.73;;;4.10;;
22034;SDS011;11181;51.002;4.356;2023-08-30T05:18:01;9.10;;;4.70;;
22034;SDS011;11181;51.002;4.356;2023-08-30T05:20:29;7.73;;;4.87;;
22034;SDS011;11181;51.002;4.356;2023-08-30T05:22:56;6.33;;;4.50;;
22034;SDS011;11181;51.002;4.356;2023-08-30T05:25:23;6.53;;;4.67;;
22034;SDS011;11181;51.002;4.356;2023-08-30T05:27:51;9.50;;;5.10;;
22034;SDS011;11181;51.002;4.356;2023-08-30T05:30:18;10.60;;;4.63;;
22034;SDS011;11181;51.002;4.356;2023-08-30T05:32:45;9.23;;;4.87;;
22034;SDS011;11181;51.002;4.356;2023-08-30T05:35:12;7.73;;;5.03;;
22034;SDS011;11181;51.002;4.356;2023-08-30T05:37:39;8.13;;;5.23;;
22034;SDS011;11181;51.002;4.356;2023-08-30T05:40:06;7.67;;;5.43;;
22034;SDS011;11181;51.002;4.356;2023-08-30T05:42:34;7.90;;;5.30;;
22034;SDS011;11181;51.002;4.356;2023-08-30T05:45:02;7.60;;;5.37;;
22034;SDS011;11181;51.002;4.356;2023-08-30T05:47:29;8.97;;;6.37;;
22034;SDS011;11181;51.002;4.356;2023-08-30T05:49:57;10.70;;;5.33;;
22034;SDS011;11181;51.002;4.356;2023-08-30T05:52:24;11.50;;;6.97;;
22034;SDS011;11181;51.002;4.356;2023-08-30T05:54:51;15.00;;;7.03;;
22034;SDS011;11181;51.002;4.356;2023-08-30T05:57:18;11.77;;;6.50;;
22034;SDS011;11181;51.002;4.356;2023-08-30T05:59:47;13.90;;;7.13;;
22034;SDS011;11181;51.002;4.356;2023-08-30T06:02:15;12.80;;;7.50;;
22034;SDS011;11181;51.002;4.356;2023-08-30T06:04:42;13.30;;;7.70;;
22034;SDS011;11181;51.002;4.356;2023-08-30T06:07:09;12.17;;;6.40;;
22034;SDS011;11181;51.002;4.356;2023-08-30T06:09:36;10.30;;;5.57;;
22034;SDS011;11181;51.002;4.356;2023-08-30T06:12:03;11.90;;;6.63;;
22034;SDS011;11181;51.002;4.356;2023-08-30T06:14:30;10.00;;;5.70;;
22034;SDS011;11181;51.002;4.356;2023-08-30T06:16:57;13.67;;;6.07;;
22034;SDS011;11181;51.002;4.356;2023-08-30T06:19:26;10.37;;;6.20;;
22034;SDS011;11181;51.002;4.356;2023-08-30T06:21:52;14.33;;;6.40;;
22034;SDS011;11181;51.002;4.356;2023-08-30T06:24:19;7.97;;;5.23;;
22034;SDS011;11181;51.002;4.356;2023-08-30T06:26:46;8.67;;;5.87;;
22034;SDS011;11181;51.002;4.356;2023-08-30T06:29:13;7.67;;;5.20;;
22034;SDS011;11181;51.002;4.356;2023-08-30T06:31:40;8.63;;;6.27;;
22034;SDS011;11181;51.002;4.356;2023-08-30T06:34:07;9.70;;;6.60;;
22034;SDS011;11181;51.002;4.356;2023-08-30T06:36:35;8.47;;;4.60;;
22034;SDS011;11181;51.002;4.356;2023-08-30T06:39:02;9.40;;;4.70;;
22034;SDS011;11181;51.002;4.356;2023-08-30T06:41:29;9.10;;;5.17;;
22034;SDS011;11181;51.002;4.356;2023-08-30T06:43:56;7.77;;;4.97;;
22034;SDS011;11181;51.002;4.356;2023-08-30T06:46:23;6.67;;;4.93;;
22034;SDS011;11181;51.002;4.356;2023-08-30T06:48:50;8.17;;;4.93;;
22034;SDS011;11181;51.002;4.356;2023-08-30T06:51:17;7.13;;;4.80;;
22034;SDS011;11181;51.002;4.356;2023-08-30T06:53:45;7.63;;;5.30;;
22034;SDS011;11181;51.002;4.356;2023-08-30T06:56:12;9.57;;;5.23;;
22034;SDS011;11181;51.002;4.356;2023-08-30T06:58:39;9.77;;;6.00;;
22034;SDS011;11181;51.002;4.356;2023-08-30T07:01:06;10.40;;;5.40;;
22034;SDS011;11181;51.002;4.356;2023-08-30T07:03:33;8.70;;;5.07;;
22034;SDS011;11181;51.002;4.356;2023-08-30T07:05:59;7.33;;;4.40;;
22034;SDS011;11181;51.002;4.356;2023-08-30T07:08:27;8.20;;;5.10;;
22034;SDS011;11181;51.002;4.356;2023-08-30T07:10:55;7.10;;;4.37;;
22034;SDS011;11181;51.002;4.356;2023-08-30T07:13:22;7.07;;;5.10;;
22034;SDS011;11181;51.002;4.356;2023-08-30T07:15:49;8.57;;;5.60;;
22034;SDS011;11181;51.002;4.356;2023-08-30T07:18:16;7.00;;;5.87;;
22034;SDS011;11181;51.002;4.356;2023-08-30T07:20:43;6.10;;;4.77;;
22034;SDS011;11181;51.002;4.356;2023-08-30T07:23:10;11.47;;;5.67;;
22034;SDS011;11181;51.002;4.356;2023-08-30T07:25:37;7.73;;;4.87;;
22034;SDS011;11181;51.002;4.356;2023-08-30T07:28:05;8.77;;;4.67;;
22034;SDS011;11181;51.002;4.356;2023-08-30T07:30:32;7.03;;;4.97;;
22034;SDS011;11181;51.002;4.356;2023-08-30T07:33:00;6.27;;;4.60;;
22034;SDS011;11181;51.002;4.356;2023-08-30T07:35:28;8.47;;;4.77;;
22034;SDS011;11181;51.002;4.356;2023-08-30T07:37:54;7.57;;;4.67;;
22034;SDS011;11181;51.002;4.356;2023-08-30T07:40:21;6.23;;;4.13;;
22034;SDS011;11181;51.002;4.356;2023-08-30T07:42:51;6.63;;;3.73;;
22034;SDS011;11181;51.002;4.356;2023-08-30T07:45:19;5.73;;;3.53;;
22034;SDS011;11181;51.002;4.356;2023-08-30T07:47:46;6.20;;;3.93;;
22034;SDS011;11181;51.002;4.356;2023-08-30T07:50:13;5.27;;;3.87;;
22034;SDS011;11181;51.002;4.356;2023-08-30T07:52:40;6.03;;;3.70;;
22034;SDS011;11181;51.002;4.356;2023-08-30T07:55:07;5.87;;;4.07;;
22034;SDS011;11181;51.002;4.356;2023-08-30T07:57:34;4.80;;;3.70;;
22034;SDS011;11181;51.002;4.356;2023-08-30T08:00:01;5.70;;;3.10;;
22034;SDS011;11181;51.002;4.356;2023-08-30T08:02:30;4.37;;;3.57;;
22034;SDS011;11181;51.002;4.356;2023-08-30T08:04:57;4.37;;;2.83;;
22034;SDS011;11181;51.002;4.356;2023-08-30T08:07:24;5.13;;;3.20;;
22034;SDS011;11181;51.002;4.356;2023-08-30T08:09:51;5.63;;;4.10;;
22034;SDS011;11181;51.002;4.356;2023-08-30T08:12:18;5.67;;;3.87;;
22034;SDS011;11181;51.002;4.356;2023-08-30T08:14:44;5.67;;;3.10;;
22034;SDS011;11181;51.002;4.356;2023-08-30T08:17:11;4.70;;;3.50;;
22034;SDS011;11181;51.002;4.356;2023-08-30T08:19:40;4.87;;;3.40;;
22034;SDS011;11181;51.002;4.356;2023-08-30T08:22:08;4.23;;;3.77;;
22034;SDS011;11181;51.002;4.356;2023-08-30T08:24:35;4.47;;;3.50;;
22034;SDS011;11181;51.002;4.356;2023-08-30T08:27:02;3.93;;;3.37;;
22034;SDS011;11181;51.002;4.356;2023-08-30T08:29:30;4.00;;;3.23;;
22034;SDS011;11181;51.002;4.356;2023-08-30T08:31:57;3.80;;;3.20;;
22034;SDS011;11181;51.002;4.356;2023-08-30T08:34:25;5.00;;;3.00;;
22034;SDS011;11181;51.002;4.356;2023-08-30T08:36:53;4.63;;;3.60;;
22034;SDS011;11181;51.002;4.356;2023-08-30T08:39:20;4.57;;;3.40;;
22034;SDS011;11181;51.002;4.356;2023-08-30T08:41:47;4.70;;;3.73;;
22034;SDS011;11181;51.002;4.356;2023-08-30T08:44:14;5.37;;;3.50;;
22034;SDS011;11181;51.002;4.356;2023-08-30T08:46:42;4.03;;;3.17;;
22034;SDS011;11181;51.002;4.356;2023-08-30T08:49:11;5.27;;;4.03;;
22034;SDS011;11181;51.002;4.356;2023-08-30T08:51:40;4.30;;;3.53;;
22034;SDS011;11181;51.002;4.356;2023-08-30T08:54:08;5.30;;;4.00;;
22034;SDS011;11181;51.002;4.356;2023-08-30T08:56:36;4.80;;;3.90;;
22034;SDS011;11181;51.002;4.356;2023-08-30T08:59:04;4.63;;;4.20;;
22034;SDS011;11181;51.002;4.356;2023-08-30T09:01:33;5.67;;;3.60;;
22034;SDS011;11181;51.002;4.356;2023-08-30T09:04:03;5.20;;;3.90;;
22034;SDS011;11181;51.002;4.356;2023-08-30T09:06:32;5.23;;;4.23;;
22034;SDS011;11181;51.002;4.356;2023-08-30T09:08:59;4.90;;;4.33;;
22034;SDS011;11181;51.002;4.356;2023-08-30T09:11:29;4.47;;;3.90;;
22034;SDS011;11181;51.002;4.356;2023-08-30T09:13:56;6.00;;;4.10;;
22034;SDS011;11181;51.002;4.356;2023-08-30T09:16:23;4.60;;;3.70;;
22034;SDS011;11181;51.002;4.356;2023-08-30T09:18:57;5.27;;;4.33;;
22034;SDS011;11181;51.002;4.356;2023-08-30T09:21:24;4.73;;;3.63;;
22034;SDS011;11181;51.002;4.356;2023-08-30T09:23:58;7.50;;;4.27;;
22034;SDS011;11181;51.002;4.356;2023-08-30T09:26:26;6.13;;;4.90;;
22034;SDS011;11181;51.002;4.356;2023-08-30T09:28:55;4.20;;;3.77;;
22034;SDS011;11181;51.002;4.356;2023-08-30T09:31:22;5.47;;;4.47;;
22034;SDS011;11181;51.002;4.356;2023-08-30T09:33:51;4.67;;;4.03;;
22034;SDS011;11181;51.002;4.356;2023-08-30T09:36:26;5.10;;;4.30;;
22034;SDS011;11181;51.002;4.356;2023-08-30T09:38:58;6.57;;;4.80;;
22034;SDS011;11181;51.002;4.356;2023-08-30T09:41:25;7.43;;;4.30;;
22034;SDS011;11181;51.002;4.356;2023-08-30T09:43:52;5.17;;;4.67;;
22034;SDS011;11181;51.002;4.356;2023-08-30T09:46:21;5.87;;;5.13;;
22034;SDS011;11181;51.002;4.356;2023-08-30T09:48:49;5.53;;;5.03;;
22034;SDS011;11181;51.002;4.356;2023-08-30T09:51:16;6.00;;;4.90;;
22034;SDS011;11181;51.002;4.356;2023-08-30T09:53:45;6.00;;;4.30;;
22034;SDS011;11181;51.002;4.356;2023-08-30T09:56:18;6.50;;;4.57;;
22034;SDS011;11181;51.002;4.356;2023-08-30T09:58:45;8.10;;;4.20;;
22034;SDS011;11181;51.002;4.356;2023-08-30T10:01:14;4.97;;;4.13;;
22034;SDS011;11181;51.002;4.356;2023-08-30T10:03:43;5.97;;;4.10;;
22034;SDS011;11181;51.002;4.356;2023-08-30T10:06:10;5.30;;;4.43;;
22034;SDS011;11181;51.002;4.356;2023-08-30T10:08:38;6.00;;;4.47;;
22034;SDS011;11181;51.002;4.356;2023-08-30T10:11:06;7.37;;;5.00;;
22034;SDS011;11181;51.002;4.356;2023-08-30T10:13:36;5.37;;;4.40;;
22034;SDS011;11181;51.002;4.356;2023-08-30T10:16:08;5.07;;;4.33;;
22034;SDS011;11181;51.002;4.356;2023-08-30T10:18:39;6.20;;;4.00;;
22034;SDS011;11181;51.002;4.356;2023-08-30T10:21:08;8.53;;;4.93;;
22034;SDS011;11181;51.002;4.356;2023-08-30T10:23:38;6.40;;;4.17;;
22034;SDS011;11181;51.002;4.356;2023-08-30T10:26:06;5.43;;;4.37;;
22034;SDS011;11181;51.002;4.356;2023-08-30T10:28:34;5.93;;;4.40;;
22034;SDS011;11181;51.002;4.356;2023-08-30T10:31:02;5.13;;;4.63;;
22034;SDS011;11181;51.002;4.356;2023-08-30T10:33:30;8.77;;;4.97;;
22034;SDS011;11181;51.002;4.356;2023-08-30T10:36:02;6.40;;;4.97;;
22034;SDS011;11181;51.002;4.356;2023-08-30T10:38:33;7.43;;;4.60;;
22034;SDS011;11181;51.002;4.356;2023-08-30T10:41:06;7.20;;;3.97;;
22034;SDS011;11181;51.002;4.356;2023-08-30T10:43:34;5.60;;;3.90;;
22034;SDS011;11181;51.002;4.356;2023-08-30T10:46:03;8.50;;;3.70;;
22034;SDS011;11181;51.002;4.356;2023-08-30T10:48:36;6.80;;;4.53;;
22034;SDS011;11181;51.002;4.356;2023-08-30T10:51:05;5.30;;;3.30;;
22034;SDS011;11181;51.002;4.356;2023-08-30T10:53:43;5.83;;;3.43;;
22034;SDS011;11181;51.002;4.356;2023-08-30T10:56:26;3.80;;;3.30;;
22034;SDS011;11181;51.002;4.356;2023-08-30T10:58:53;4.03;;;3.00;;
22034;SDS011;11181;51.002;4.356;2023-08-30T11:01:20;3.70;;;2.17;;
22034;SDS011;11181;51.002;4.356;2023-08-30T11:03:48;5.27;;;2.17;;
22034;SDS011;11181;51.002;4.356;2023-08-30T11:06:16;6.47;;;2.50;;
22034;SDS011;11181;51.002;4.356;2023-08-30T11:08:45;3.80;;;2.30;;
22034;SDS011;11181;51.002;4.356;2023-08-30T11:11:14;6.13;;;2.03;;
22034;SDS011;11181;51.002;4.356;2023-08-30T11:13:41;4.67;;;1.97;;
22034;SDS011;11181;51.002;4.356;2023-08-30T11:16:08;6.80;;;2.20;;
22034;SDS011;11181;51.002;4.356;2023-08-30T11:18:37;3.73;;;2.10;;
22034;SDS011;11181;51.002;4.356;2023-08-30T11:21:06;4.20;;;1.60;;
22034;SDS011;11181;51.002;4.356;2023-08-30T11:23:34;4.73;;;1.73;;
22034;SDS011;11181;51.002;4.356;2023-08-30T11:26:02;4.90;;;1.97;;
22034;SDS011;11181;51.002;4.356;2023-08-30T11:28:30;11.67;;;2.00;;
22034;SDS011;11181;51.002;4.356;2023-08-30T11:30:57;10.80;;;2.33;;
22034;SDS011;11181;51.002;4.356;2023-08-30T11:33:24;6.73;;;2.70;;
22034;SDS011;11181;51.002;4.356;2023-08-30T11:35:51;5.90;;;2.27;;
22034;SDS011;11181;51.002;4.356;2023-08-30T11:38:18;5.03;;;2.03;;
22034;SDS011;11181;51.002;4.356;2023-08-30T11:40:48;6.50;;;1.70;;
22034;SDS011;11181;51.002;4.356;2023-08-30T11:43:17;6.20;;;1.90;;
22034;SDS011;11181;51.002;4.356;2023-08-30T11:45:45;6.37;;;1.80;;
22034;SDS011;11181;51.002;4.356;2023-08-30T11:48:12;4.20;;;1.90;;
22034;SDS011;11181;51.002;4.356;2023-08-30T11:50:39;6.50;;;2.00;;
22034;SDS011;11181;51.002;4.356;2023-08-30T11:53:08;9.40;;;1.70;;
22034;SDS011;11181;51.002;4.356;2023-08-30T11:55:36;5.97;;;1.73;;
22034;SDS011;11181;51.002;4.356;2023-08-30T11:58:04;4.43;;;1.70;;
22034;SDS011;11181;51.002;4.356;2023-08-30T12:00:32;5.77;;;1.50;;
22034;SDS011;11181;51.002;4.356;2023-08-30T12:03:00;4.20;;;1.67;;
22034;SDS011;11181;51.002;4.356;2023-08-30T12:05:27;5.93;;;1.83;;
22034;SDS011;11181;51.002;4.356;2023-08-30T12:07:59;4.40;;;1.23;;
22034;SDS011;11181;51.002;4.356;2023-08-30T12:10:27;3.53;;;1.40;;
22034;SDS011;11181;51.002;4.356;2023-08-30T12:12:55;3.53;;;1.40;;
22034;SDS011;11181;51.002;4.356;2023-08-30T12:15:22;4.03;;;1.83;;
22034;SDS011;11181;51.002;4.356;2023-08-30T12:17:53;3.77;;;1.33;;
22034;SDS011;11181;51.002;4.356;2023-08-30T12:20:21;2.80;;;1.10;;
22034;SDS011;11181;51.002;4.356;2023-08-30T12:22:48;5.83;;;1.80;;
22034;SDS011;11181;51.002;4.356;2023-08-30T12:25:16;5.20;;;1.50;;
22034;SDS011;11181;51.002;4.356;2023-08-30T12:27:45;5.83;;;1.60;;
22034;SDS011;11181;51.002;4.356;2023-08-30T12:30:13;5.50;;;1.90;;
22034;SDS011;11181;51.002;4.356;2023-08-30T12:32:41;3.80;;;1.58;;
22034;SDS011;11181;51.002;4.356;2023-08-30T12:35:10;4.78;;;1.58;;
22034;SDS011;11181;51.002;4.356;2023-08-30T12:37:37;5.35;;;1.52;;
22034;SDS011;11181;51.002;4.356;2023-08-30T12:40:04;2.17;;;1.85;;
22034;SDS011;11181;51.002;4.356;2023-08-30T12:42:32;4.22;;;1.60;;
22034;SDS011;11181;51.002;4.356;2023-08-30T12:44:59;4.28;;;1.77;;
22034;SDS011;11181;51.002;4.356;2023-08-30T12:47:28;4.07;;;1.58;;
22034;SDS011;11181;51.002;4.356;2023-08-30T12:49:55;7.30;;;2.00;;
22034;SDS011;11181;51.002;4.356;2023-08-30T12:52:23;5.90;;;1.73;;
22034;SDS011;11181;51.002;4.356;2023-08-30T12:54:50;7.25;;;1.75;;
22034;SDS011;11181;51.002;4.356;2023-08-30T12:57:19;3.97;;;1.48;;
22034;SDS011;11181;51.002;4.356;2023-08-30T12:59:46;4.93;;;1.20;;
22034;SDS011;11181;51.002;4.356;2023-08-30T13:02:13;3.27;;;1.33;;
22034;SDS011;11181;51.002;4.356;2023-08-30T13:04:40;6.60;;;1.37;;
22034;SDS011;11181;51.002;4.356;2023-08-30T13:07:07;3.75;;;1.30;;
22034;SDS011;11181;51.002;4.356;2023-08-30T13:09:35;2.95;;;1.27;;
22034;SDS011;11181;51.002;4.356;2023-08-30T13:12:02;5.45;;;1.60;;
22034;SDS011;11181;51.002;4.356;2023-08-30T13:14:30;7.13;;;1.50;;
22034;SDS011;11181;51.002;4.356;2023-08-30T13:16:57;4.82;;;1.20;;
22034;SDS011;11181;51.002;4.356;2023-08-30T13:19:24;2.97;;;1.30;;
22034;SDS011;11181;51.002;4.356;2023-08-30T13:21:51;1.98;;;1.05;;
22034;SDS011;11181;51.002;4.356;2023-08-30T13:24:18;3.80;;;1.10;;
22034;SDS011;11181;51.002;4.356;2023-08-30T13:26:46;5.47;;;1.55;;
22034;SDS011;11181;51.002;4.356;2023-08-30T13:29:13;3.72;;;1.25;;
22034;SDS011;11181;51.002;4.356;2023-08-30T13:31:40;2.67;;;0.88;;
22034;SDS011;11181;51.002;4.356;2023-08-30T13:34:10;4.93;;;1.08;;
22034;SDS011;11181;51.002;4.356;2023-08-30T13:36:37;6.38;;;1.95;;
22034;SDS011;11181;51.002;4.356;2023-08-30T13:39:04;4.18;;;1.67;;
22034;SDS011;11181;51.002;4.356;2023-08-30T13:41:31;5.53;;;1.20;;
22034;SDS011;11181;51.002;4.356;2023-08-30T13:43:59;2.40;;;1.17;;
22034;SDS011;11181;51.002;4.356;2023-08-30T13:46:27;3.73;;;1.00;;
22034;SDS011;11181;51.002;4.356;2023-08-30T13:48:54;4.83;;;1.40;;
22034;SDS011;11181;51.002;4.356;2023-08-30T13:51:22;2.53;;;1.30;;
22034;SDS011;11181;51.002;4.356;2023-08-30T13:53:50;5.20;;;1.30;;
22034;SDS011;11181;51.002;4.356;2023-08-30T13:56:18;4.30;;;1.47;;
22034;SDS011;11181;51.002;4.356;2023-08-30T13:58:45;4.77;;;1.90;;
22034;SDS011;11181;51.002;4.356;2023-08-30T14:01:14;5.60;;;1.53;;
22034;SDS011;11181;51.002;4.356;2023-08-30T14:03:43;3.23;;;1.27;;
22034;SDS011;11181;51.002;4.356;2023-08-30T14:06:10;7.77;;;1.60;;
22034;SDS011;11181;51.002;4.356;2023-08-30T14:08:37;2.20;;;1.07;;
22034;SDS011;11181;51.002;4.356;2023-08-30T14:11:04;4.70;;;1.80;;
22034;SDS011;11181;51.002;4.356;2023-08-30T14:13:31;2.80;;;1.23;;
22034;SDS011;11181;51.002;4.356;2023-08-30T14:15:58;4.77;;;1.30;;
22034;SDS011;11181;51.002;4.356;2023-08-30T14:18:27;3.80;;;1.17;;
22034;SDS011;11181;51.002;4.356;2023-08-30T14:20:55;4.47;;;0.90;;
22034;SDS011;11181;51.002;4.356;2023-08-30T14:23:23;2.37;;;0.80;;
22034;SDS011;11181;51.002;4.356;2023-08-30T14:25:57;4.95;;;1.00;;
22034;SDS011;11181;51.002;4.356;2023-08-30T14:28:24;1.97;;;1.00;;
22034;SDS011;11181;51.002;4.356;2023-08-30T14:30:51;5.53;;;1.60;;
22034;SDS011;11181;51.002;4.356;2023-08-30T14:33:19;2.85;;;1.35;;
22034;SDS011;11181;51.002;4.356;2023-08-30T14:35:47;4.50;;;1.20;;
22034;SDS011;11181;51.002;4.356;2023-08-30T14:38:14;5.13;;;1.42;;
22034;SDS011;11181;51.002;4.356;2023-08-30T14:40:41;2.35;;;1.15;;
22034;SDS011;11181;51.002;4.356;2023-08-30T14:43:08;3.90;;;0.90;;
22034;SDS011;11181;51.002;4.356;2023-08-30T14:45:35;5.00;;;1.30;;
22034;SDS011;11181;51.002;4.356;2023-08-30T14:48:02;1.23;;;0.77;;
22034;SDS011;11181;51.002;4.356;2023-08-30T14:50:29;5.87;;;1.23;;
22034;SDS011;11181;51.002;4.356;2023-08-30T14:52:58;6.97;;;2.40;;